sensor_id;sensor_type;location;lat;lon;timestamp;P1;durP1;ratioP1;P2;durP2;ratioP2
11675;SDS011;5894;42.768;23.404;2022-10-19T00:02:10;16.63;;;10.73;;
11675;SDS011;5894;42.768;23.404;2022-10-19T00:04:37;16.73;;;9.80;;
11675;SDS011;5894;42.768;23.404;2022-10-19T00:07:04;15.53;;;9.60;;
11675;SDS011;5894;42.768;23.404;2022-10-19T00:09:31;16.83;;;10.37;;
11675;SDS011;5894;42.768;23.404;2022-10-19T00:11:59;14.23;;;9.23;;
11675;SDS011;5894;42.768;23.404;2022-10-19T00:14:26;16.60;;;9.57;;
11675;SDS011;5894;42.768;23.404;2022-10-19T00:16:52;14.30;;;9.50;;
11675;SDS011;5894;42.768;23.404;2022-10-19T00:19:21;18.93;;;9.37;;
11675;SDS011;5894;42.768;23.404;2022-10-19T00:21:50;17.10;;;9.40;;
11675;SDS011;5894;42.768;23.404;2022-10-19T00:24:17;15.17;;;9.27;;
11675;SDS011;5894;42.768;23.404;2022-10-19T00:26:44;18.47;;;9.67;;
11675;SDS011;5894;42.768;23.404;2022-10-19T00:29:12;13.60;;;8.83;;
11675;SDS011;5894;42.768;23.404;2022-10-19T00:31:40;18.40;;;10.97;;
11675;SDS011;5894;42.768;23.404;2022-10-19T00:34:07;16.10;;;10.13;;
11675;SDS011;5894;42.768;23.404;2022-10-19T00:36:39;13.17;;;8.97;;
11675;SDS011;5894;42.768;23.404;2022-10-19T00:39:07;15.67;;;8.87;;
11675;SDS011;5894;42.768;23.404;2022-10-19T00:41:42;18.27;;;8.67;;
11675;SDS011;5894;42.768;23.404;2022-10-19T00:47:11;14.50;;;8.90;;
11675;SDS011;5894;42.768;23.404;2022-10-19T00:49:38;18.73;;;9.30;;
11675;SDS011;5894;42.768;23.404;2022-10-19T00:52:10;17.60;;;10.10;;
11675;SDS011;5894;42.768;23.404;2022-10-19T00:54:41;18.33;;;11.10;;
11675;SDS011;5894;42.768;23.404;2022-10-19T00:57:11;21.67;;;12.10;;
11675;SDS011;5894;42.768;23.404;2022-10-19T00:59:38;21.00;;;12.07;;
11675;SDS011;5894;42.768;23.404;2022-10-19T01:02:07;16.27;;;9.93;;
11675;SDS011;5894;42.768;23.404;2022-10-19T01:04:37;22.00;;;9.90;;
11675;SDS011;5894;42.768;23.404;2022-10-19T01:07:06;18.03;;;10.13;;
11675;SDS011;5894;42.768;23.404;2022-10-19T01:09:34;17.63;;;9.70;;
11675;SDS011;5894;42.768;23.404;2022-10-19T01:12:02;18.43;;;9.83;;
11675;SDS011;5894;42.768;23.404;2022-10-19T01:14:37;21.17;;;11.33;;
11675;SDS011;5894;42.768;23.404;2022-10-19T01:17:22;16.70;;;10.73;;
11675;SDS011;5894;42.768;23.404;2022-10-19T01:23:21;14.93;;;9.23;;
11675;SDS011;5894;42.768;23.404;2022-10-19T01:26:06;16.90;;;8.80;;
11675;SDS011;5894;42.768;23.404;2022-10-19T01:28:43;19.40;;;8.50;;
11675;SDS011;5894;42.768;23.404;2022-10-19T01:31:20;16.47;;;8.93;;
11675;SDS011;5894;42.768;23.404;2022-10-19T01:33:55;43.03;;;25.40;;
11675;SDS011;5894;42.768;23.404;2022-10-19T01:36:30;26.63;;;15.93;;
11675;SDS011;5894;42.768;23.404;2022-10-19T01:39:02;20.30;;;11.77;;
11675;SDS011;5894;42.768;23.404;2022-10-19T01:41:37;15.70;;;9.80;;
11675;SDS011;5894;42.768;23.404;2022-10-19T01:44:13;14.47;;;9.03;;
11675;SDS011;5894;42.768;23.404;2022-10-19T01:46:48;18.03;;;9.27;;
11675;SDS011;5894;42.768;23.404;2022-10-19T01:49:19;13.53;;;9.33;;
11675;SDS011;5894;42.768;23.404;2022-10-19T01:51:53;14.63;;;8.97;;
11675;SDS011;5894;42.768;23.404;2022-10-19T01:54:23;12.77;;;8.70;;
11675;SDS011;5894;42.768;23.404;2022-10-19T01:56:54;12.97;;;8.97;;
11675;SDS011;5894;42.768;23.404;2022-10-19T01:59:25;14.90;;;8.33;;
11675;SDS011;5894;42.768;23.404;2022-10-19T02:01:54;12.57;;;8.20;;
11675;SDS011;5894;42.768;23.404;2022-10-19T02:04:22;17.70;;;9.30;;
11675;SDS011;5894;42.768;23.404;2022-10-19T02:06:51;14.97;;;8.60;;
11675;SDS011;5894;42.768;23.404;2022-10-19T02:09:19;16.13;;;8.50;;
11675;SDS011;5894;42.768;23.404;2022-10-19T02:11:46;15.07;;;8.47;;
11675;SDS011;5894;42.768;23.404;2022-10-19T02:14:16;15.93;;;9.10;;
11675;SDS011;5894;42.768;23.404;2022-10-19T02:16:48;16.97;;;9.57;;
11675;SDS011;5894;42.768;23.404;2022-10-19T02:19:19;15.57;;;9.57;;
11675;SDS011;5894;42.768;23.404;2022-10-19T02:21:47;15.13;;;9.40;;
11675;SDS011;5894;42.768;23.404;2022-10-19T02:24:15;14.37;;;9.40;;
11675;SDS011;5894;42.768;23.404;2022-10-19T02:26:42;11.23;;;8.20;;
11675;SDS011;5894;42.768;23.404;2022-10-19T02:29:09;13.97;;;8.23;;
11675;SDS011;5894;42.768;23.404;2022-10-19T02:31:39;13.07;;;7.77;;
11675;SDS011;5894;42.768;23.404;2022-10-19T02:34:06;12.70;;;7.47;;
11675;SDS011;5894;42.768;23.404;2022-10-19T02:36:34;10.47;;;7.37;;
11675;SDS011;5894;42.768;23.404;2022-10-19T02:39:02;11.10;;;6.80;;
11675;SDS011;5894;42.768;23.404;2022-10-19T02:41:30;10.63;;;6.80;;
11675;SDS011;5894;42.768;23.404;2022-10-19T02:44:04;10.00;;;6.40;;
11675;SDS011;5894;42.768;23.404;2022-10-19T02:46:36;10.30;;;6.70;;
11675;SDS011;5894;42.768;23.404;2022-10-19T02:49:06;10.10;;;6.63;;
11675;SDS011;5894;42.768;23.404;2022-10-19T02:51:36;10.67;;;7.20;;
11675;SDS011;5894;42.768;23.404;2022-10-19T02:54:05;11.63;;;6.80;;
11675;SDS011;5894;42.768;23.404;2022-10-19T02:56:33;10.30;;;6.70;;
11675;SDS011;5894;42.768;23.404;2022-10-19T02:59:01;11.10;;;7.00;;
11675;SDS011;5894;42.768;23.404;2022-10-19T03:01:28;10.20;;;6.77;;
11675;SDS011;5894;42.768;23.404;2022-10-19T03:03:55;10.33;;;7.07;;
11675;SDS011;5894;42.768;23.404;2022-10-19T03:06:22;11.53;;;7.27;;
11675;SDS011;5894;42.768;23.404;2022-10-19T03:08:50;12.70;;;8.73;;
11675;SDS011;5894;42.768;23.404;2022-10-19T03:11:17;22.37;;;12.33;;
11675;SDS011;5894;42.768;23.404;2022-10-19T03:13:44;19.73;;;12.87;;
11675;SDS011;5894;42.768;23.404;2022-10-19T03:16:11;20.80;;;12.40;;
11675;SDS011;5894;42.768;23.404;2022-10-19T03:18:38;15.33;;;10.13;;
11675;SDS011;5894;42.768;23.404;2022-10-19T03:21:07;15.53;;;9.33;;
11675;SDS011;5894;42.768;23.404;2022-10-19T03:23:34;13.93;;;9.10;;
11675;SDS011;5894;42.768;23.404;2022-10-19T03:26:03;12.27;;;8.40;;
11675;SDS011;5894;42.768;23.404;2022-10-19T03:28:31;13.27;;;8.30;;
11675;SDS011;5894;42.768;23.404;2022-10-19T03:30:58;11.03;;;7.57;;
11675;SDS011;5894;42.768;23.404;2022-10-19T03:33:25;12.07;;;7.53;;
11675;SDS011;5894;42.768;23.404;2022-10-19T03:38:45;12.57;;;8.03;;
11675;SDS011;5894;42.768;23.404;2022-10-19T03:41:13;11.33;;;7.70;;
11675;SDS011;5894;42.768;23.404;2022-10-19T03:43:40;16.87;;;8.20;;
11675;SDS011;5894;42.768;23.404;2022-10-19T03:46:07;12.53;;;8.10;;
11675;SDS011;5894;42.768;23.404;2022-10-19T03:48:34;13.93;;;8.20;;
11675;SDS011;5894;42.768;23.404;2022-10-19T03:51:02;14.27;;;6.87;;
11675;SDS011;5894;42.768;23.404;2022-10-19T03:53:30;11.67;;;7.20;;
11675;SDS011;5894;42.768;23.404;2022-10-19T03:56:01;12.53;;;8.40;;
11675;SDS011;5894;42.768;23.404;2022-10-19T03:58:30;12.17;;;8.40;;
11675;SDS011;5894;42.768;23.404;2022-10-19T04:00:58;13.20;;;9.33;;
11675;SDS011;5894;42.768;23.404;2022-10-19T04:03:25;18.90;;;10.50;;
11675;SDS011;5894;42.768;23.404;2022-10-19T04:05:59;23.77;;;10.33;;
11675;SDS011;5894;42.768;23.404;2022-10-19T04:08:27;15.87;;;9.40;;
11675;SDS011;5894;42.768;23.404;2022-10-19T04:10:57;19.57;;;9.60;;
11675;SDS011;5894;42.768;23.404;2022-10-19T04:13:25;17.07;;;9.73;;
11675;SDS011;5894;42.768;23.404;2022-10-19T04:15:53;20.47;;;10.80;;
11675;SDS011;5894;42.768;23.404;2022-10-19T04:18:20;17.20;;;10.00;;
11675;SDS011;5894;42.768;23.404;2022-10-19T04:20:47;15.57;;;8.97;;
11675;SDS011;5894;42.768;23.404;2022-10-19T04:23:14;11.13;;;8.27;;
11675;SDS011;5894;42.768;23.404;2022-10-19T04:25:40;12.87;;;8.13;;
11675;SDS011;5894;42.768;23.404;2022-10-19T04:28:07;13.13;;;9.17;;
11675;SDS011;5894;42.768;23.404;2022-10-19T04:30:34;14.67;;;10.37;;
11675;SDS011;5894;42.768;23.404;2022-10-19T04:33:02;17.80;;;10.43;;
11675;SDS011;5894;42.768;23.404;2022-10-19T04:35:29;19.73;;;12.60;;
11675;SDS011;5894;42.768;23.404;2022-10-19T04:37:57;24.27;;;12.97;;
11675;SDS011;5894;42.768;23.404;2022-10-19T04:40:24;23.53;;;12.43;;
11675;SDS011;5894;42.768;23.404;2022-10-19T04:42:51;23.20;;;13.80;;
11675;SDS011;5894;42.768;23.404;2022-10-19T04:45:17;36.33;;;18.57;;
11675;SDS011;5894;42.768;23.404;2022-10-19T04:47:44;57.20;;;23.60;;
11675;SDS011;5894;42.768;23.404;2022-10-19T04:50:12;94.10;;;35.93;;
11675;SDS011;5894;42.768;23.404;2022-10-19T04:52:39;83.83;;;33.60;;
11675;SDS011;5894;42.768;23.404;2022-10-19T04:55:09;81.53;;;35.10;;
11675;SDS011;5894;42.768;23.404;2022-10-19T04:57:36;94.93;;;51.10;;
11675;SDS011;5894;42.768;23.404;2022-10-19T05:00:03;107.37;;;59.97;;
11675;SDS011;5894;42.768;23.404;2022-10-19T05:02:30;89.17;;;54.40;;
11675;SDS011;5894;42.768;23.404;2022-10-19T05:04:57;63.03;;;38.77;;
11675;SDS011;5894;42.768;23.404;2022-10-19T05:07:25;46.77;;;28.17;;
11675;SDS011;5894;42.768;23.404;2022-10-19T05:09:52;31.60;;;18.87;;
11675;SDS011;5894;42.768;23.404;2022-10-19T05:12:19;30.40;;;14.70;;
11675;SDS011;5894;42.768;23.404;2022-10-19T05:14:45;21.60;;;12.37;;
11675;SDS011;5894;42.768;23.404;2022-10-19T05:17:12;20.70;;;10.90;;
11675;SDS011;5894;42.768;23.404;2022-10-19T05:19:39;19.20;;;10.13;;
11675;SDS011;5894;42.768;23.404;2022-10-19T05:22:06;21.43;;;12.13;;
11675;SDS011;5894;42.768;23.404;2022-10-19T05:24:35;28.10;;;13.63;;
11675;SDS011;5894;42.768;23.404;2022-10-19T05:27:02;32.00;;;15.27;;
11675;SDS011;5894;42.768;23.404;2022-10-19T05:29:28;36.73;;;19.03;;
11675;SDS011;5894;42.768;23.404;2022-10-19T05:31:57;42.47;;;23.33;;
11675;SDS011;5894;42.768;23.404;2022-10-19T05:34:24;48.37;;;27.00;;
11675;SDS011;5894;42.768;23.404;2022-10-19T05:36:52;47.60;;;28.10;;
11675;SDS011;5894;42.768;23.404;2022-10-19T05:39:20;49.63;;;27.83;;
11675;SDS011;5894;42.768;23.404;2022-10-19T05:41:49;46.63;;;26.90;;
11675;SDS011;5894;42.768;23.404;2022-10-19T05:44:16;44.07;;;26.33;;
11675;SDS011;5894;42.768;23.404;2022-10-19T05:46:44;44.63;;;26.57;;
11675;SDS011;5894;42.768;23.404;2022-10-19T05:49:12;44.60;;;25.83;;
11675;SDS011;5894;42.768;23.404;2022-10-19T05:51:40;42.90;;;23.90;;
11675;SDS011;5894;42.768;23.404;2022-10-19T05:54:07;42.23;;;22.33;;
11675;SDS011;5894;42.768;23.404;2022-10-19T05:56:34;34.53;;;20.50;;
11675;SDS011;5894;42.768;23.404;2022-10-19T05:59:03;39.27;;;21.60;;
11675;SDS011;5894;42.768;23.404;2022-10-19T06:01:31;36.97;;;20.70;;
11675;SDS011;5894;42.768;23.404;2022-10-19T06:03:59;42.87;;;23.13;;
11675;SDS011;5894;42.768;23.404;2022-10-19T06:06:27;35.07;;;23.13;;
11675;SDS011;5894;42.768;23.404;2022-10-19T06:08:54;33.07;;;20.33;;
11675;SDS011;5894;42.768;23.404;2022-10-19T06:11:24;28.23;;;16.73;;
11675;SDS011;5894;42.768;23.404;2022-10-19T06:13:53;25.87;;;15.57;;
11675;SDS011;5894;42.768;23.404;2022-10-19T06:16:22;23.93;;;13.77;;
11675;SDS011;5894;42.768;23.404;2022-10-19T06:18:50;17.50;;;11.53;;
11675;SDS011;5894;42.768;23.404;2022-10-19T06:21:18;17.30;;;9.57;;
11675;SDS011;5894;42.768;23.404;2022-10-19T06:23:48;14.13;;;8.80;;
11675;SDS011;5894;42.768;23.404;2022-10-19T06:26:15;12.60;;;8.60;;
11675;SDS011;5894;42.768;23.404;2022-10-19T06:28:42;15.97;;;8.73;;
11675;SDS011;5894;42.768;23.404;2022-10-19T06:31:10;14.57;;;8.90;;
11675;SDS011;5894;42.768;23.404;2022-10-19T06:33:39;57.43;;;12.30;;
11675;SDS011;5894;42.768;23.404;2022-10-19T06:36:07;33.53;;;10.23;;
11675;SDS011;5894;42.768;23.404;2022-10-19T06:38:34;25.27;;;9.33;;
11675;SDS011;5894;42.768;23.404;2022-10-19T06:41:01;22.47;;;9.50;;
11675;SDS011;5894;42.768;23.404;2022-10-19T06:43:29;19.33;;;8.90;;
11675;SDS011;5894;42.768;23.404;2022-10-19T06:45:56;13.37;;;9.33;;
11675;SDS011;5894;42.768;23.404;2022-10-19T06:48:23;15.50;;;9.00;;
11675;SDS011;5894;42.768;23.404;2022-10-19T06:50:56;12.93;;;8.27;;
11675;SDS011;5894;42.768;23.404;2022-10-19T06:53:23;14.60;;;7.90;;
11675;SDS011;5894;42.768;23.404;2022-10-19T06:55:51;12.97;;;7.97;;
11675;SDS011;5894;42.768;23.404;2022-10-19T06:58:18;15.97;;;7.93;;
11675;SDS011;5894;42.768;23.404;2022-10-19T07:00:44;15.27;;;8.40;;
11675;SDS011;5894;42.768;23.404;2022-10-19T07:03:12;20.90;;;8.73;;
11675;SDS011;5894;42.768;23.404;2022-10-19T07:05:39;13.03;;;8.47;;
11675;SDS011;5894;42.768;23.404;2022-10-19T07:08:07;11.77;;;8.03;;
11675;SDS011;5894;42.768;23.404;2022-10-19T07:10:35;15.27;;;7.80;;
11675;SDS011;5894;42.768;23.404;2022-10-19T07:13:01;11.30;;;8.10;;
11675;SDS011;5894;42.768;23.404;2022-10-19T07:15:28;13.97;;;8.67;;
11675;SDS011;5894;42.768;23.404;2022-10-19T07:17:55;13.03;;;8.90;;
11675;SDS011;5894;42.768;23.404;2022-10-19T07:20:22;15.13;;;8.60;;
11675;SDS011;5894;42.768;23.404;2022-10-19T07:22:49;15.07;;;8.53;;
11675;SDS011;5894;42.768;23.404;2022-10-19T07:25:17;13.83;;;8.50;;
11675;SDS011;5894;42.768;23.404;2022-10-19T07:27:44;17.07;;;8.77;;
11675;SDS011;5894;42.768;23.404;2022-10-19T07:30:11;14.23;;;8.63;;
11675;SDS011;5894;42.768;23.404;2022-10-19T07:32:38;12.20;;;7.93;;
11675;SDS011;5894;42.768;23.404;2022-10-19T07:35:05;9.80;;;7.10;;
11675;SDS011;5894;42.768;23.404;2022-10-19T07:37:32;11.07;;;6.80;;
11675;SDS011;5894;42.768;23.404;2022-10-19T07:39:59;9.77;;;6.60;;
11675;SDS011;5894;42.768;23.404;2022-10-19T07:42:28;10.50;;;6.60;;
11675;SDS011;5894;42.768;23.404;2022-10-19T07:44:55;8.33;;;6.70;;
11675;SDS011;5894;42.768;23.404;2022-10-19T07:47:22;12.33;;;7.57;;
11675;SDS011;5894;42.768;23.404;2022-10-19T07:49:49;10.13;;;6.80;;
11675;SDS011;5894;42.768;23.404;2022-10-19T07:52:16;9.07;;;6.27;;
11675;SDS011;5894;42.768;23.404;2022-10-19T07:54:43;11.37;;;7.03;;
11675;SDS011;5894;42.768;23.404;2022-10-19T07:57:13;11.63;;;6.83;;
11675;SDS011;5894;42.768;23.404;2022-10-19T07:59:41;10.53;;;6.87;;
11675;SDS011;5894;42.768;23.404;2022-10-19T08:02:10;10.10;;;6.47;;
11675;SDS011;5894;42.768;23.404;2022-10-19T08:04:41;11.70;;;7.30;;
11675;SDS011;5894;42.768;23.404;2022-10-19T08:07:08;10.27;;;6.57;;
11675;SDS011;5894;42.768;23.404;2022-10-19T08:09:34;11.23;;;7.00;;
11675;SDS011;5894;42.768;23.404;2022-10-19T08:12:02;9.43;;;6.17;;
11675;SDS011;5894;42.768;23.404;2022-10-19T08:14:29;10.27;;;6.40;;
11675;SDS011;5894;42.768;23.404;2022-10-19T08:16:58;9.57;;;6.50;;
11675;SDS011;5894;42.768;23.404;2022-10-19T08:19:25;9.77;;;6.30;;
11675;SDS011;5894;42.768;23.404;2022-10-19T08:21:52;9.37;;;6.17;;
11675;SDS011;5894;42.768;23.404;2022-10-19T08:24:19;12.60;;;6.40;;
11675;SDS011;5894;42.768;23.404;2022-10-19T08:26:46;11.90;;;6.30;;
11675;SDS011;5894;42.768;23.404;2022-10-19T08:29:16;8.90;;;5.87;;
11675;SDS011;5894;42.768;23.404;2022-10-19T08:31:44;10.00;;;5.60;;
11675;SDS011;5894;42.768;23.404;2022-10-19T08:34:14;10.27;;;5.83;;
11675;SDS011;5894;42.768;23.404;2022-10-19T08:36:41;9.23;;;5.33;;
11675;SDS011;5894;42.768;23.404;2022-10-19T08:39:11;8.40;;;5.20;;
11675;SDS011;5894;42.768;23.404;2022-10-19T08:41:43;10.50;;;5.47;;
11675;SDS011;5894;42.768;23.404;2022-10-19T08:44:34;10.27;;;5.63;;
11675;SDS011;5894;42.768;23.404;2022-10-19T08:47:16;8.03;;;5.73;;
11675;SDS011;5894;42.768;23.404;2022-10-19T08:49:54;12.00;;;5.47;;
11675;SDS011;5894;42.768;23.404;2022-10-19T08:52:23;9.23;;;5.23;;
11675;SDS011;5894;42.768;23.404;2022-10-19T08:54:53;11.67;;;6.37;;
11675;SDS011;5894;42.768;23.404;2022-10-19T08:57:24;11.80;;;5.83;;
11675;SDS011;5894;42.768;23.404;2022-10-19T08:59:58;11.67;;;5.97;;
11675;SDS011;5894;42.768;23.404;2022-10-19T09:02:34;15.20;;;6.20;;
11675;SDS011;5894;42.768;23.404;2022-10-19T09:05:14;11.50;;;6.83;;
11675;SDS011;5894;42.768;23.404;2022-10-19T09:07:46;15.00;;;6.80;;
11675;SDS011;5894;42.768;23.404;2022-10-19T09:10:19;10.30;;;6.07;;
11675;SDS011;5894;42.768;23.404;2022-10-19T09:12:50;12.43;;;6.97;;
11675;SDS011;5894;42.768;23.404;2022-10-19T09:15:24;10.90;;;6.30;;
11675;SDS011;5894;42.768;23.404;2022-10-19T09:17:54;10.80;;;5.80;;
11675;SDS011;5894;42.768;23.404;2022-10-19T09:20:24;13.07;;;5.57;;
11675;SDS011;5894;42.768;23.404;2022-10-19T09:23:03;8.30;;;5.33;;
11675;SDS011;5894;42.768;23.404;2022-10-19T09:25:38;10.67;;;5.50;;
11675;SDS011;5894;42.768;23.404;2022-10-19T09:28:12;14.17;;;5.77;;
11675;SDS011;5894;42.768;23.404;2022-10-19T09:30:50;9.63;;;5.17;;
11675;SDS011;5894;42.768;23.404;2022-10-19T09:33:21;8.50;;;5.00;;
11675;SDS011;5894;42.768;23.404;2022-10-19T09:35:55;8.70;;;4.53;;
11675;SDS011;5894;42.768;23.404;2022-10-19T09:38:26;9.57;;;4.68;;
11675;SDS011;5894;42.768;23.404;2022-10-19T09:40:55;7.03;;;4.30;;
11675;SDS011;5894;42.768;23.404;2022-10-19T09:43:22;6.95;;;3.75;;
11675;SDS011;5894;42.768;23.404;2022-10-19T09:45:52;6.30;;;4.30;;
11675;SDS011;5894;42.768;23.404;2022-10-19T09:48:25;6.63;;;3.50;;
11675;SDS011;5894;42.768;23.404;2022-10-19T09:50:58;7.75;;;3.70;;
11675;SDS011;5894;42.768;23.404;2022-10-19T09:53:26;9.20;;;3.20;;
11675;SDS011;5894;42.768;23.404;2022-10-19T09:55:58;6.32;;;3.17;;
11675;SDS011;5894;42.768;23.404;2022-10-19T09:58:28;8.43;;;2.75;;
11675;SDS011;5894;42.768;23.404;2022-10-19T10:00:56;5.38;;;3.40;;
11675;SDS011;5894;42.768;23.404;2022-10-19T10:03:27;3.70;;;3.13;;
11675;SDS011;5894;42.768;23.404;2022-10-19T10:05:55;8.52;;;3.03;;
11675;SDS011;5894;42.768;23.404;2022-10-19T10:08:28;4.70;;;2.80;;
11675;SDS011;5894;42.768;23.404;2022-10-19T10:11:00;3.35;;;2.70;;
11675;SDS011;5894;42.768;23.404;2022-10-19T10:13:34;4.32;;;2.70;;
11675;SDS011;5894;42.768;23.404;2022-10-19T10:16:02;3.75;;;2.63;;
11675;SDS011;5894;42.768;23.404;2022-10-19T10:18:31;6.38;;;2.80;;
11675;SDS011;5894;42.768;23.404;2022-10-19T10:21:10;9.02;;;3.00;;
11675;SDS011;5894;42.768;23.404;2022-10-19T10:23:38;5.05;;;3.00;;
11675;SDS011;5894;42.768;23.404;2022-10-19T10:26:14;3.85;;;2.67;;
11675;SDS011;5894;42.768;23.404;2022-10-19T10:28:46;3.47;;;2.85;;
11675;SDS011;5894;42.768;23.404;2022-10-19T10:31:14;3.47;;;2.47;;
11675;SDS011;5894;42.768;23.404;2022-10-19T10:33:50;5.65;;;2.65;;
11675;SDS011;5894;42.768;23.404;2022-10-19T10:36:23;7.97;;;3.53;;
11675;SDS011;5894;42.768;23.404;2022-10-19T10:38:54;12.90;;;5.32;;
11675;SDS011;5894;42.768;23.404;2022-10-19T10:41:27;6.30;;;3.50;;
11675;SDS011;5894;42.768;23.404;2022-10-19T10:43:58;4.70;;;3.05;;
11675;SDS011;5894;42.768;23.404;2022-10-19T10:46:31;7.82;;;2.97;;
11675;SDS011;5894;42.768;23.404;2022-10-19T10:49:01;9.30;;;3.38;;
11675;SDS011;5894;42.768;23.404;2022-10-19T10:51:33;8.85;;;3.10;;
11675;SDS011;5894;42.768;23.404;2022-10-19T10:54:05;8.32;;;2.80;;
11675;SDS011;5894;42.768;23.404;2022-10-19T10:56:41;5.45;;;2.80;;
11675;SDS011;5894;42.768;23.404;2022-10-19T10:59:10;8.50;;;3.13;;
11675;SDS011;5894;42.768;23.404;2022-10-19T11:01:41;3.95;;;2.70;;
11675;SDS011;5894;42.768;23.404;2022-10-19T11:04:27;4.20;;;2.80;;
11675;SDS011;5894;42.768;23.404;2022-10-19T11:07:00;4.60;;;2.70;;
11675;SDS011;5894;42.768;23.404;2022-10-19T11:09:45;6.03;;;3.42;;
11675;SDS011;5894;42.768;23.404;2022-10-19T11:12:18;6.57;;;2.80;;
11675;SDS011;5894;42.768;23.404;2022-10-19T11:14:59;4.25;;;2.50;;
11675;SDS011;5894;42.768;23.404;2022-10-19T11:17:32;4.20;;;2.92;;
11675;SDS011;5894;42.768;23.404;2022-10-19T11:20:03;3.53;;;2.78;;
11675;SDS011;5894;42.768;23.404;2022-10-19T11:22:34;5.30;;;3.05;;
11675;SDS011;5894;42.768;23.404;2022-10-19T11:25:14;3.75;;;2.60;;
11675;SDS011;5894;42.768;23.404;2022-10-19T11:27:51;4.80;;;2.97;;
11675;SDS011;5894;42.768;23.404;2022-10-19T11:30:26;3.92;;;2.90;;
11675;SDS011;5894;42.768;23.404;2022-10-19T11:33:00;5.05;;;2.90;;
11675;SDS011;5894;42.768;23.404;2022-10-19T11:35:40;5.90;;;2.55;;
11675;SDS011;5894;42.768;23.404;2022-10-19T11:38:20;4.50;;;3.10;;
11675;SDS011;5894;42.768;23.404;2022-10-19T11:41:03;5.47;;;2.83;;
11675;SDS011;5894;42.768;23.404;2022-10-19T11:43:36;7.65;;;3.08;;
11675;SDS011;5894;42.768;23.404;2022-10-19T11:46:13;5.20;;;2.60;;
11675;SDS011;5894;42.768;23.404;2022-10-19T11:48:51;6.75;;;2.60;;
11675;SDS011;5894;42.768;23.404;2022-10-19T11:51:30;3.92;;;2.45;;
11675;SDS011;5894;42.768;23.404;2022-10-19T11:54:07;3.72;;;2.50;;
11675;SDS011;5894;42.768;23.404;2022-10-19T11:56:46;2.83;;;2.40;;
11675;SDS011;5894;42.768;23.404;2022-10-19T11:59:18;2.90;;;2.42;;
11675;SDS011;5894;42.768;23.404;2022-10-19T12:01:56;4.25;;;2.47;;
11675;SDS011;5894;42.768;23.404;2022-10-19T12:04:41;4.00;;;2.53;;
11675;SDS011;5894;42.768;23.404;2022-10-19T12:07:21;3.28;;;2.47;;
11675;SDS011;5894;42.768;23.404;2022-10-19T12:10:15;5.57;;;2.90;;
11675;SDS011;5894;42.768;23.404;2022-10-19T12:12:50;3.20;;;2.38;;
11675;SDS011;5894;42.768;23.404;2022-10-19T12:15:25;4.18;;;2.88;;
11675;SDS011;5894;42.768;23.404;2022-10-19T12:17:56;6.13;;;2.65;;
11675;SDS011;5894;42.768;23.404;2022-10-19T12:20:29;3.65;;;2.83;;
11675;SDS011;5894;42.768;23.404;2022-10-19T12:23:00;3.05;;;2.72;;
11675;SDS011;5894;42.768;23.404;2022-10-19T12:25:38;5.72;;;2.90;;
11675;SDS011;5894;42.768;23.404;2022-10-19T12:28:09;4.43;;;2.58;;
11675;SDS011;5894;42.768;23.404;2022-10-19T12:30:42;4.78;;;2.70;;
11675;SDS011;5894;42.768;23.404;2022-10-19T12:33:13;3.45;;;3.00;;
11675;SDS011;5894;42.768;23.404;2022-10-19T12:35:51;5.18;;;2.80;;
11675;SDS011;5894;42.768;23.404;2022-10-19T12:38:25;6.15;;;2.70;;
11675;SDS011;5894;42.768;23.404;2022-10-19T12:41:02;5.35;;;2.80;;
11675;SDS011;5894;42.768;23.404;2022-10-19T12:43:38;5.35;;;2.70;;
11675;SDS011;5894;42.768;23.404;2022-10-19T12:46:12;3.95;;;2.47;;
11675;SDS011;5894;42.768;23.404;2022-10-19T12:48:54;3.92;;;2.97;;
11675;SDS011;5894;42.768;23.404;2022-10-19T12:51:59;3.63;;;2.60;;
11675;SDS011;5894;42.768;23.404;2022-10-19T12:54:27;5.55;;;2.70;;
11675;SDS011;5894;42.768;23.404;2022-10-19T12:56:59;6.80;;;2.58;;
11675;SDS011;5894;42.768;23.404;2022-10-19T12:59:28;3.72;;;2.70;;
11675;SDS011;5894;42.768;23.404;2022-10-19T13:01:57;4.10;;;2.67;;
11675;SDS011;5894;42.768;23.404;2022-10-19T13:04:26;3.63;;;3.00;;
11675;SDS011;5894;42.768;23.404;2022-10-19T13:06:58;5.70;;;2.85;;
11675;SDS011;5894;42.768;23.404;2022-10-19T13:09:28;4.00;;;3.13;;
11675;SDS011;5894;42.768;23.404;2022-10-19T13:14:55;4.18;;;3.20;;
11675;SDS011;5894;42.768;23.404;2022-10-19T13:17:39;4.80;;;3.25;;
11675;SDS011;5894;42.768;23.404;2022-10-19T13:28:59;5.93;;;3.08;;
11675;SDS011;5894;42.768;23.404;2022-10-19T13:31:27;5.85;;;3.40;;
11675;SDS011;5894;42.768;23.404;2022-10-19T13:33:55;6.32;;;3.25;;
11675;SDS011;5894;42.768;23.404;2022-10-19T13:36:23;4.72;;;3.13;;
11675;SDS011;5894;42.768;23.404;2022-10-19T13:41:44;6.57;;;3.00;;
11675;SDS011;5894;42.768;23.404;2022-10-19T13:44:17;4.13;;;3.25;;
11675;SDS011;5894;42.768;23.404;2022-10-19T13:46:53;9.27;;;3.60;;
11675;SDS011;5894;42.768;23.404;2022-10-19T13:49:35;5.25;;;3.28;;
11675;SDS011;5894;42.768;23.404;2022-10-19T13:55:42;5.40;;;2.97;;
11675;SDS011;5894;42.768;23.404;2022-10-19T13:58:24;5.88;;;3.55;;
11675;SDS011;5894;42.768;23.404;2022-10-19T14:01:07;3.72;;;3.30;;
11675;SDS011;5894;42.768;23.404;2022-10-19T14:03:53;4.95;;;3.60;;
11675;SDS011;5894;42.768;23.404;2022-10-19T14:06:31;9.65;;;3.38;;
11675;SDS011;5894;42.768;23.404;2022-10-19T14:12:13;6.45;;;3.35;;
11675;SDS011;5894;42.768;23.404;2022-10-19T14:14:43;4.57;;;3.80;;
11675;SDS011;5894;42.768;23.404;2022-10-19T14:17:15;6.40;;;3.13;;
11675;SDS011;5894;42.768;23.404;2022-10-19T14:19:45;5.93;;;3.13;;
11675;SDS011;5894;42.768;23.404;2022-10-19T14:22:23;3.80;;;3.28;;
11675;SDS011;5894;42.768;23.404;2022-10-19T14:24:58;6.30;;;3.30;;
11675;SDS011;5894;42.768;23.404;2022-10-19T14:27:26;6.68;;;3.90;;
11675;SDS011;5894;42.768;23.404;2022-10-19T14:29:53;6.38;;;3.80;;
11675;SDS011;5894;42.768;23.404;2022-10-19T14:32:23;6.78;;;3.97;;
11675;SDS011;5894;42.768;23.404;2022-10-19T14:34:51;6.43;;;3.40;;
11675;SDS011;5894;42.768;23.404;2022-10-19T14:37:19;4.88;;;4.35;;
11675;SDS011;5894;42.768;23.404;2022-10-19T14:39:58;7.03;;;4.68;;
11675;SDS011;5894;42.768;23.404;2022-10-19T14:42:40;7.68;;;4.88;;
11675;SDS011;5894;42.768;23.404;2022-10-19T14:45:12;5.07;;;4.20;;
11675;SDS011;5894;42.768;23.404;2022-10-19T14:47:52;8.63;;;3.80;;
11675;SDS011;5894;42.768;23.404;2022-10-19T14:50:21;5.72;;;3.92;;
11675;SDS011;5894;42.768;23.404;2022-10-19T14:52:53;6.28;;;3.80;;
11675;SDS011;5894;42.768;23.404;2022-10-19T14:55:27;5.25;;;3.80;;
11675;SDS011;5894;42.768;23.404;2022-10-19T14:58:00;35.30;;;5.85;;
11675;SDS011;5894;42.768;23.404;2022-10-19T15:00:28;7.68;;;4.28;;
11675;SDS011;5894;42.768;23.404;2022-10-19T15:02:59;6.95;;;4.53;;
11675;SDS011;5894;42.768;23.404;2022-10-19T15:05:30;7.55;;;4.13;;
11675;SDS011;5894;42.768;23.404;2022-10-19T15:08:04;9.10;;;4.15;;
11675;SDS011;5894;42.768;23.404;2022-10-19T15:10:37;5.82;;;3.97;;
11675;SDS011;5894;42.768;23.404;2022-10-19T15:13:07;7.63;;;4.68;;
11675;SDS011;5894;42.768;23.404;2022-10-19T15:15:44;6.20;;;4.28;;
11675;SDS011;5894;42.768;23.404;2022-10-19T15:18:26;10.10;;;4.85;;
11675;SDS011;5894;42.768;23.404;2022-10-19T15:21:04;7.55;;;4.20;;
11675;SDS011;5894;42.768;23.404;2022-10-19T15:23:40;7.20;;;4.20;;
11675;SDS011;5894;42.768;23.404;2022-10-19T15:26:13;6.97;;;4.47;;
11675;SDS011;5894;42.768;23.404;2022-10-19T15:28:44;7.43;;;4.55;;
11675;SDS011;5894;42.768;23.404;2022-10-19T15:31:15;7.18;;;5.20;;